createdAt,value
2022-11-14T00:02:52.994Z,101855.56
2022-11-14T00:06:13.717Z,101857.47
2022-11-14T00:09:34.441Z,101852.94
2022-11-14T00:12:55.020Z,101850.03
2022-11-14T00:16:16.008Z,101853.59
2022-11-14T00:19:36.902Z,101844.91
2022-11-14T00:22:58.114Z,101841.63
2022-11-14T00:26:19.039Z,101846.47
2022-11-14T00:29:39.883Z,101845.09
2022-11-14T00:33:00.828Z,101839.88
2022-11-14T00:36:22.290Z,101837.97
2022-11-14T00:39:43.063Z,101835.94
2022-11-14T00:43:04.171Z,101830.09
2022-11-14T00:46:25.196Z,101831.09
2022-11-14T00:49:46.273Z,101831.78
2022-11-14T00:53:07.301Z,101821.94
2022-11-14T00:56:28.159Z,101818.75
2022-11-14T00:59:48.798Z,101819.94
2022-11-14T01:03:09.961Z,101812.03
2022-11-14T01:06:30.875Z,101802.28
2022-11-14T01:09:51.958Z,101801.03
2022-11-14T01:13:13.290Z,101803.31
2022-11-14T01:16:35.942Z,101802.53
2022-11-14T01:19:56.539Z,101770.09
2022-11-14T01:23:18.029Z,101784.63
2022-11-14T01:26:38.871Z,101786.16
2022-11-14T01:30:00.050Z,101774.72
2022-11-14T01:33:20.926Z,101781.22
2022-11-14T01:36:41.823Z,101773.03
2022-11-14T01:40:03.026Z,101771.06
2022-11-14T01:43:50.690Z,101774.56
2022-11-14T01:47:12.580Z,101769.25
2022-11-14T01:50:33.319Z,101768.00
2022-11-14T01:53:56.894Z,101761.34
2022-11-14T01:57:22.151Z,101766.69
2022-11-14T02:00:43.980Z,101756.28
2022-11-14T02:04:06.725Z,101752.84
2022-11-14T02:07:30.147Z,101757.00
2022-11-14T02:10:51.130Z,101750.94
2022-11-14T02:14:12.314Z,101744.66
2022-11-14T02:17:33.738Z,101751.31
2022-11-14T02:20:54.585Z,101750.72
2022-11-14T02:24:15.637Z,101749.28
2022-11-14T02:27:37.377Z,101742.41
2022-11-14T02:30:58.023Z,101736.28
2022-11-14T02:34:20.403Z,101735.66
2022-11-14T02:37:41.220Z,101742.91
2022-11-14T02:41:02.723Z,101729.97
2022-11-14T02:44:23.835Z,101727.50
2022-11-14T02:47:44.818Z,101736.13
2022-11-14T02:51:05.880Z,101727.97
2022-11-14T02:54:26.945Z,101727.25
2022-11-14T02:57:47.678Z,101723.38
2022-11-14T03:01:24.391Z,101720.53
2022-11-14T03:04:45.369Z,101716.59
2022-11-14T03:08:06.519Z,101714.13
2022-11-14T03:11:27.357Z,101703.38
2022-11-14T03:14:48.394Z,101710.69
2022-11-14T03:18:09.337Z,101706.81
2022-11-14T03:21:29.970Z,101708.59
2022-11-14T03:24:51.546Z,101702.88
2022-11-14T03:28:12.265Z,101705.00
2022-11-14T03:31:33.169Z,101694.94
2022-11-14T03:34:54.747Z,101697.22
2022-11-14T03:38:15.831Z,101691.75
2022-11-14T03:41:36.647Z,101689.66
2022-11-14T03:44:57.670Z,101690.13
2022-11-14T03:48:18.736Z,101681.00
2022-11-14T03:51:39.868Z,101674.28
2022-11-14T03:55:00.964Z,101668.69
2022-11-14T03:58:22.054Z,101675.31
2022-11-14T04:01:42.869Z,101669.53
2022-11-14T04:05:03.407Z,101665.47
2022-11-14T04:08:24.397Z,101661.84
2022-11-14T04:11:45.520Z,101667.41
2022-11-14T04:15:07.050Z,101664.69
2022-11-14T04:18:28.186Z,101666.09
2022-11-14T04:21:49.421Z,101661.03
2022-11-14T04:25:10.638Z,101651.19
2022-11-14T04:28:32.088Z,101653.78
2022-11-14T04:31:53.334Z,101648.09
2022-11-14T04:35:14.044Z,101644.09
2022-11-14T04:38:34.517Z,101640.28
2022-11-14T04:41:55.578Z,101633.44
2022-11-14T04:45:16.775Z,101628.72
2022-11-14T04:48:37.571Z,101625.16
2022-11-14T04:51:58.677Z,101618.41
2022-11-14T04:55:19.717Z,101624.34
2022-11-14T04:58:40.399Z,101632.63
2022-11-14T05:02:01.442Z,101633.81
2022-11-14T05:05:22.169Z,101624.34
2022-11-14T05:08:43.693Z,101629.53
2022-11-14T05:12:05.025Z,101620.53
2022-11-14T05:15:26.000Z,101610.28
2022-11-14T05:18:47.207Z,101609.31
2022-11-14T05:22:08.150Z,101617.34
2022-11-14T05:25:28.858Z,101609.31
2022-11-14T05:28:49.785Z,101615.59
2022-11-14T05:32:15.965Z,101603.88
2022-11-14T05:35:36.781Z,101601.63
2022-11-14T05:38:57.975Z,101599.13
2022-11-14T05:42:18.794Z,101601.50
2022-11-14T05:45:39.779Z,101608.97
2022-11-14T05:49:00.647Z,101612.38
2022-11-14T05:52:21.432Z,101614.13
2022-11-14T05:55:42.135Z,101613.81
2022-11-14T05:59:03.141Z,101620.75
2022-11-14T06:02:23.895Z,101624.34
2022-11-14T06:05:44.674Z,101614.03
2022-11-14T06:09:05.483Z,101621.25
2022-11-14T06:12:26.320Z,101626.66
2022-11-14T06:15:47.246Z,101622.06
2022-11-14T06:19:08.274Z,101630.25
2022-11-14T06:22:29.130Z,101626.59
2022-11-14T06:25:50.273Z,101627.03
2022-11-14T06:29:11.636Z,101622.22
2022-11-14T06:32:32.822Z,101628.94
2022-11-14T06:35:59.411Z,101627.50
2022-11-14T06:39:20.284Z,101635.31
2022-11-14T06:42:41.116Z,101630.38
2022-11-14T06:46:01.728Z,101636.75
2022-11-14T06:49:24.119Z,101638.03
2022-11-14T06:52:44.800Z,101635.53
2022-11-14T06:56:07.416Z,101632.63
2022-11-14T14:58:46.563Z,101284.00
2022-11-14T15:02:15.555Z,101268.91
2022-11-14T15:05:36.635Z,101268.22
2022-11-14T15:08:59.452Z,101273.34
2022-11-14T15:12:20.914Z,101277.78
2022-11-14T15:15:42.409Z,101276.06
2022-11-14T15:19:04.491Z,101273.50
2022-11-14T15:22:29.921Z,101270.78
2022-11-14T15:26:05.973Z,101260.78
2022-11-14T15:29:31.447Z,101271.97
2022-11-14T15:32:57.825Z,101268.53
2022-11-14T15:36:18.958Z,101265.19
2022-11-14T15:39:41.770Z,101261.44
2022-11-14T15:43:41.607Z,101259.19
2022-11-14T15:47:04.058Z,101256.75
2022-11-14T15:50:31.598Z,101250.19
2022-11-14T15:53:54.596Z,101257.72
2022-11-14T15:57:17.485Z,101251.22
2022-11-14T16:00:43.696Z,101241.69
2022-11-14T16:04:05.417Z,101242.16
2022-11-14T16:07:28.350Z,101232.25
2022-11-14T16:10:49.801Z,101235.81
2022-11-14T16:14:11.116Z,101225.28
2022-11-14T16:17:37.954Z,101226.50
2022-11-14T16:21:00.258Z,101229.44
2022-11-14T16:24:23.936Z,101221.16
2022-11-14T16:27:46.525Z,101227.22
2022-11-14T16:31:16.752Z,101225.44
2022-11-14T16:34:37.979Z,101221.66
2022-11-14T16:37:59.302Z,101219.16
2022-11-14T16:41:20.905Z,101214.25
2022-11-14T16:44:47.798Z,101201.50
2022-11-14T16:48:11.589Z,101210.25
2022-11-14T16:51:51.135Z,101212.91
2022-11-14T16:55:13.824Z,101205.38
2022-11-14T16:58:34.900Z,101205.75
2022-11-14T17:01:55.789Z,101196.34
2022-11-14T17:05:17.722Z,101206.00
2022-11-14T17:08:39.179Z,101197.16
2022-11-14T17:12:00.459Z,101187.00
2022-11-14T17:15:21.796Z,101201.78
2022-11-14T17:18:43.022Z,101199.75
2022-11-14T17:22:04.551Z,101194.19
2022-11-14T17:25:25.666Z,101201.41
2022-11-14T17:28:47.088Z,101195.06
2022-11-14T17:32:09.051Z,101197.16
2022-11-14T17:35:29.995Z,101197.88
2022-11-14T17:38:50.814Z,101187.34
2022-11-14T17:42:11.736Z,101183.53
2022-11-14T17:45:32.825Z,101185.13
2022-11-14T17:48:54.437Z,101177.59
2022-11-14T17:52:16.517Z,101175.69
2022-11-14T17:55:38.541Z,101160.09
2022-11-14T17:58:59.765Z,101164.16
2022-11-14T18:02:22.407Z,101167.69
2022-11-14T18:05:46.308Z,101151.16
2022-11-14T18:09:10.154Z,101166.50
2022-11-14T18:12:34.555Z,101164.97
2022-11-14T18:15:55.899Z,101168.00
2022-11-14T18:19:16.882Z,101170.97
2022-11-14T18:22:37.924Z,101170.63
2022-11-14T18:25:59.170Z,101162.97
2022-11-14T18:29:20.749Z,101154.84
2022-11-14T18:32:44.453Z,101165.69
2022-11-14T18:36:09.056Z,101159.31
2022-11-14T18:39:31.881Z,101144.47
2022-11-14T18:42:53.208Z,101141.81
2022-11-14T18:46:16.325Z,101149.88
2022-11-14T18:49:37.632Z,101147.97
2022-11-14T18:52:58.965Z,101147.41
2022-11-14T18:56:21.901Z,101156.44
2022-11-14T18:59:43.480Z,101148.56
2022-11-14T19:03:09.206Z,101150.56
2022-11-14T19:06:34.945Z,101137.72
2022-11-14T19:09:56.599Z,101148.06
2022-11-14T19:13:17.948Z,101141.34
2022-11-14T19:16:39.383Z,101136.03
2022-11-14T19:20:00.635Z,101130.34
2022-11-14T19:23:21.882Z,101128.63
2022-11-14T19:26:43.029Z,101129.56
2022-11-14T19:30:04.350Z,101132.03
2022-11-14T19:33:26.284Z,101126.97
2022-11-14T19:36:59.855Z,101126.50
2022-11-14T19:40:22.106Z,101123.78
2022-11-14T19:43:44.069Z,101126.34
2022-11-14T19:47:05.237Z,101120.94
2022-11-14T19:50:26.002Z,101106.59
2022-11-14T19:53:47.830Z,101110.66
2022-11-14T19:57:09.138Z,101120.06
2022-11-14T20:00:30.374Z,101109.13
2022-11-14T20:03:53.019Z,101107.59
2022-11-14T20:07:16.319Z,101114.34
2022-11-14T20:10:47.875Z,101112.81
2022-11-14T20:14:11.854Z,101097.09
2022-11-14T20:17:33.566Z,101095.69
2022-11-14T20:20:58.077Z,101102.88
2022-11-14T20:24:22.719Z,101094.59
2022-11-14T20:27:43.918Z,101090.13
2022-11-14T20:31:07.757Z,101086.72
2022-11-14T20:34:30.248Z,101076.84
2022-11-14T20:37:51.359Z,101078.50
2022-11-14T20:41:13.303Z,101068.56
2022-11-14T20:44:35.012Z,101064.38
2022-11-14T20:47:56.349Z,101049.28
2022-11-14T20:51:22.547Z,101059.53
2022-11-14T20:54:44.472Z,101060.13
2022-11-14T20:58:05.666Z,101053.75
2022-11-14T21:01:26.564Z,101048.47
2022-11-14T21:04:47.604Z,101044.81
2022-11-14T21:08:08.687Z,101044.09
2022-11-14T21:11:29.735Z,101048.59
2022-11-14T21:14:50.914Z,101043.28
2022-11-14T21:18:12.386Z,101041.63
2022-11-14T21:21:38.781Z,101039.47
2022-11-14T21:25:00.971Z,101028.91
2022-11-14T21:28:22.812Z,101008.66
2022-11-14T21:31:45.723Z,101024.41
2022-11-14T21:35:09.957Z,101020.78
2022-11-14T21:38:31.535Z,101004.69
2022-11-14T21:41:53.652Z,101019.50
2022-11-14T21:45:15.810Z,101009.78
2022-11-14T21:48:41.546Z,101001.69
2022-11-14T21:52:03.688Z,100968.00
2022-11-14T21:55:24.674Z,100995.78
2022-11-14T21:58:46.484Z,100997.81
2022-11-14T22:02:29.196Z,100990.47
2022-11-14T22:05:50.258Z,100993.53
2022-11-14T22:09:11.736Z,100976.69
2022-11-14T22:12:35.552Z,100985.31
2022-11-14T22:15:56.864Z,100979.19
2022-11-14T22:19:19.214Z,100977.06
2022-11-14T22:22:40.722Z,100959.63
2022-11-14T22:26:05.376Z,100981.19
2022-11-14T22:29:26.754Z,100987.91
2022-11-14T22:33:00.602Z,100962.34
2022-11-14T22:36:24.405Z,100964.69
2022-11-14T22:39:45.920Z,100971.03
2022-11-14T22:43:07.550Z,100953.13
2022-11-14T22:46:29.397Z,100967.19
2022-11-14T22:49:51.583Z,100935.25
2022-11-14T22:53:12.774Z,100953.50
2022-11-14T22:56:34.045Z,100952.91
2022-11-14T22:59:56.338Z,100953.06
2022-11-14T23:03:20.667Z,100944.03
2022-11-14T23:06:42.172Z,100936.25
2022-11-14T23:10:04.780Z,100938.31
2022-11-14T23:13:25.812Z,100945.94
2022-11-14T23:16:46.850Z,100939.94
2022-11-14T23:20:16.074Z,100924.88
2022-11-14T23:23:39.150Z,100932.19
2022-11-14T23:27:00.284Z,100930.41
2022-11-14T23:30:21.638Z,100929.19
2022-11-14T23:33:42.379Z,100929.66
2022-11-14T23:37:03.885Z,100917.88
2022-11-14T23:40:24.814Z,100914.59
2022-11-14T23:43:46.442Z,100909.69
2022-11-14T23:47:07.821Z,100910.38
2022-11-14T23:50:28.658Z,100897.88
2022-11-14T23:53:49.838Z,100903.38
2022-11-14T23:57:10.877Z,100896.47
